Time;durP1;ratioP1;P1;durP2;ratioP2;P2;SDS_P1;SDS_P2;PMS_P1;PMS_P2;Temp;Humidity;BMP_temperature;BMP_pressure;BME280_temperature;BME280_humidity;BME280_pressure;Samples;Min_cycle;Max_cycle;Signal;HPM_P1;HPM_P2
2023/01/13 00:00:37;;;;;;;16.10;7.05;;;;;;;;;;8496598;27;20192;-87
2023/01/13 00:04:58;;;;;;;18.08;7.30;;;;;;;;;;8501557;27;20405;-88
2023/01/13 00:09:00;;;;;;;12.63;6.15;;;;;;;;;;8512169;27;20043;-87
2023/01/13 00:13:04;;;;;;;17.55;7.15;;;;;;;;;;8517412;27;20043;-87
2023/01/13 00:17:07;;;;;;;18.75;6.63;;;;;;;;;;8508611;27;20086;-88
2023/01/13 00:21:15;;;;;;;21.95;8.50;;;;;;;;;;8530355;27;20039;-88
2023/01/13 00:25:18;;;;;;;18.83;7.18;;;;;;;;;;8517051;27;20494;-87
2023/01/13 00:29:21;;;;;;;15.93;6.82;;;;;;;;;;8670208;22;20163;-87
2023/01/13 00:33:24;;;;;;;13.38;6.25;;;;;;;;;;8377587;28;20044;-87
2023/01/13 00:37:28;;;;;;;17.83;7.97;;;;;;;;;;8395370;28;20151;-88
2023/01/13 00:43:21;;;;;;;16.13;5.60;;;;;;;;;;8395197;28;20049;-87
2023/01/13 00:45:55;;;;;;;16.65;6.88;;;;;;;;;;8395249;28;20048;-87
2023/01/13 00:49:57;;;;;;;10.63;5.78;;;;;;;;;;8395203;28;20044;-87
2023/01/13 00:54:02;;;;;;;18.13;7.60;;;;;;;;;;8404125;28;20044;-87
2023/01/13 00:58:05;;;;;;;16.55;6.75;;;;;;;;;;8411490;28;20052;-87
2023/01/13 01:02:07;;;;;;;14.68;6.50;;;;;;;;;;8412895;28;20123;-87
2023/01/13 01:06:13;;;;;;;14.85;7.25;;;;;;;;;;8411818;28;20048;-87
2023/01/13 01:10:18;;;;;;;18.23;7.20;;;;;;;;;;8417632;28;20122;-88
2023/01/13 01:14:20;;;;;;;15.00;6.85;;;;;;;;;;8414145;28;20048;-86
2023/01/13 01:18:23;;;;;;;15.70;7.38;;;;;;;;;;8418130;28;20044;-87
2023/01/13 01:22:26;;;;;;;15.68;7.05;;;;;;;;;;8430321;28;20043;-87
2023/01/13 01:26:31;;;;;;;14.98;6.15;;;;;;;;;;8413354;28;20086;-87
2023/01/13 01:30:33;;;;;;;10.93;5.20;;;;;;;;;;8433115;28;20119;-87
2023/01/13 01:34:37;;;;;;;11.73;4.82;;;;;;;;;;8420102;28;20115;-87
2023/01/13 01:38:40;;;;;;;14.13;6.07;;;;;;;;;;8399941;28;20097;-87
2023/01/13 01:47:05;;;;;;;13.70;5.60;;;;;;;;;;8399565;28;20044;-87
2023/01/13 01:51:12;;;;;;;16.25;6.47;;;;;;;;;;8426010;28;20052;-87
2023/01/13 01:55:18;;;;;;;16.75;6.90;;;;;;;;;;8412650;28;20513;-87
2023/01/13 01:59:23;;;;;;;17.15;6.18;;;;;;;;;;8425645;28;20052;-87
2023/01/13 02:03:26;;;;;;;13.57;6.53;;;;;;;;;;8406228;28;20051;-88
2023/01/13 02:07:32;;;;;;;10.73;5.80;;;;;;;;;;8402171;28;20067;-87
2023/01/13 02:16:03;;;;;;;15.83;7.03;;;;;;;;;;8398682;28;20117;-86
2023/01/13 02:20:39;;;;;;;17.35;5.93;;;;;;;;;;8431661;28;20314;-87
2023/01/13 02:25:13;;;;;;;14.85;6.78;;;;;;;;;;8431766;28;20096;-87
2023/01/13 02:34:05;;;;;;;17.17;6.00;;;;;;;;;;8411275;28;20701;-88
2023/01/13 02:38:11;;;;;;;15.63;6.55;;;;;;;;;;8397798;28;20044;-87
2023/01/13 02:46:53;;;;;;;12.57;5.72;;;;;;;;;;8415244;28;20036;-87
2023/01/13 02:50:59;;;;;;;12.57;5.53;;;;;;;;;;8412299;28;20045;-87
2023/01/13 02:55:08;;;;;;;13.10;6.50;;;;;;;;;;8422581;28;20051;-87
2023/01/13 02:59:12;;;;;;;11.88;5.90;;;;;;;;;;8412594;28;20097;-87
2023/01/13 03:03:16;;;;;;;13.27;6.07;;;;;;;;;;8408246;28;20045;-87
2023/01/13 03:07:56;;;;;;;9.88;5.32;;;;;;;;;;8423644;28;20127;-88
2023/01/13 03:12:10;;;;;;;12.50;6.05;;;;;;;;;;8410231;28;20044;-86
2023/01/13 03:16:22;;;;;;;12.00;5.28;;;;;;;;;;8396452;28;20056;-87
2023/01/13 03:20:28;;;;;;;;;;;;;;;;;;8396917;28;20482;-87
2023/01/13 03:24:37;;;;;;;12.90;5.88;;;;;;;;;;8421787;28;19920;-87
2023/01/13 03:28:43;;;;;;;8.35;4.50;;;;;;;;;;8412578;28;20040;-88
2023/01/13 03:32:49;;;;;;;17.27;5.32;;;;;;;;;;8409664;28;20040;-87
2023/01/13 03:36:56;;;;;;;13.23;6.00;;;;;;;;;;8395924;28;20044;-87
2023/01/13 03:41:03;;;;;;;10.43;5.20;;;;;;;;;;8395484;28;20048;-87
2023/01/13 03:45:12;;;;;;;7.90;3.30;;;;;;;;;;8395903;28;20049;-87
2023/01/13 03:49:19;;;;;;;11.23;5.38;;;;;;;;;;8421308;28;20048;-87
2023/01/13 03:53:28;;;;;;;12.57;5.47;;;;;;;;;;8424202;28;20495;-88
2023/01/13 03:57:35;;;;;;;10.32;4.80;;;;;;;;;;8405276;28;20065;-88
2023/01/13 04:01:46;;;;;;;7.53;3.85;;;;;;;;;;8407737;28;20097;-88
2023/01/13 04:05:55;;;;;;;8.35;4.75;;;;;;;;;;8403131;28;20046;-87
2023/01/13 04:10:03;;;;;;;10.43;4.15;;;;;;;;;;8399470;28;20047;-88
2023/01/13 04:14:10;;;;;;;12.00;5.60;;;;;;;;;;8413515;28;20036;-88
2023/01/13 04:18:18;;;;;;;11.98;5.82;;;;;;;;;;8404261;28;20044;-87
2023/01/13 04:22:21;;;;;;;10.40;5.05;;;;;;;;;;8402066;28;20040;-87
2023/01/13 04:26:25;;;;;;;6.10;3.38;;;;;;;;;;8399082;28;20494;-87
2023/01/13 04:30:28;;;;;;;11.13;5.20;;;;;;;;;;8404741;28;20061;-87
2023/01/13 04:34:31;;;;;;;9.88;5.22;;;;;;;;;;8402807;28;20068;-88
2023/01/13 04:38:34;;;;;;;11.88;5.75;;;;;;;;;;8397805;28;20537;-88
2023/01/13 04:42:38;;;;;;;10.10;5.28;;;;;;;;;;8407599;28;20044;-88
2023/01/13 04:46:41;;;;;;;5.82;3.80;;;;;;;;;;8404624;28;20482;-86
2023/01/13 04:50:44;;;;;;;13.50;6.13;;;;;;;;;;8411441;28;20066;-87
2023/01/13 04:54:47;;;;;;;7.50;3.83;;;;;;;;;;8407618;28;20055;-88
2023/01/13 04:58:51;;;;;;;11.80;4.70;;;;;;;;;;8419509;28;20086;-88
2023/01/13 05:02:54;;;;;;;12.00;5.40;;;;;;;;;;8414943;28;20097;-87
2023/01/13 05:06:57;;;;;;;10.60;4.53;;;;;;;;;;8422451;28;20045;-87
2023/01/13 05:11:00;;;;;;;8.52;4.50;;;;;;;;;;8407681;28;20040;-88
2023/01/13 05:19:25;;;;;;;11.73;5.88;;;;;;;;;;8413223;28;20128;-87
2023/01/13 05:27:49;;;;;;;10.48;4.50;;;;;;;;;;8408584;28;20127;-87
2023/01/13 05:31:53;;;;;;;9.88;4.75;;;;;;;;;;8413924;28;20060;-87
2023/01/13 05:35:56;;;;;;;5.65;3.38;;;;;;;;;;8419203;28;20043;-87
2023/01/13 05:44:19;;;;;;;10.65;4.90;;;;;;;;;;8414587;28;20131;-87
2023/01/13 05:48:25;;;;;;;8.45;5.03;;;;;;;;;;8410093;28;20082;-87
2023/01/13 05:52:28;;;;;;;9.30;4.80;;;;;;;;;;8405641;28;20056;-87
2023/01/13 05:56:31;;;;;;;11.13;4.47;;;;;;;;;;8398869;28;20045;-87
2023/01/13 06:00:35;;;;;;;10.82;4.82;;;;;;;;;;8414244;28;20047;-87
2023/01/13 06:04:39;;;;;;;9.80;4.85;;;;;;;;;;8410489;28;20044;-87
2023/01/13 06:08:42;;;;;;;6.13;3.55;;;;;;;;;;8398984;28;20395;-87
2023/01/13 06:12:45;;;;;;;9.90;4.57;;;;;;;;;;8407605;28;20112;-87
2023/01/13 06:16:48;;;;;;;8.55;4.72;;;;;;;;;;8407263;28;20483;-87
2023/01/13 06:20:52;;;;;;;9.63;4.60;;;;;;;;;;8405849;28;20495;-87
2023/01/13 06:24:55;;;;;;;8.57;4.50;;;;;;;;;;8425414;28;20119;-86
2023/01/13 06:28:58;;;;;;;8.15;4.60;;;;;;;;;;8406857;28;20091;-87
2023/01/13 06:33:03;;;;;;;12.10;4.55;;;;;;;;;;8399642;28;20636;-87
2023/01/13 06:37:08;;;;;;;7.15;4.13;;;;;;;;;;8417325;28;20055;-87
2023/01/13 06:41:12;;;;;;;10.18;4.72;;;;;;;;;;8428235;28;20044;-87
2023/01/13 06:45:15;;;;;;;10.63;4.65;;;;;;;;;;8397352;28;20484;-87
2023/01/13 06:49:18;;;;;;;10.00;4.47;;;;;;;;;;8400488;28;20119;-88
2023/01/13 06:53:23;;;;;;;8.30;5.13;;;;;;;;;;8430621;28;20104;-87
2023/01/13 06:57:25;;;;;;;8.50;4.60;;;;;;;;;;8413452;28;20044;-87
2023/01/13 07:01:28;;;;;;;8.48;4.70;;;;;;;;;;8396738;28;20040;-87
2023/01/13 07:05:31;;;;;;;11.65;4.95;;;;;;;;;;8410199;28;20040;-87
2023/01/13 07:09:36;;;;;;;11.93;4.80;;;;;;;;;;8397077;28;20414;-87
2023/01/13 07:18:00;;;;;;;10.25;4.90;;;;;;;;;;8403351;28;20040;-86
2023/01/13 07:22:02;;;;;;;10.60;4.53;;;;;;;;;;8415064;28;20040;-86
2023/01/13 07:26:09;;;;;;;11.23;5.47;;;;;;;;;;8425487;28;20079;-87
2023/01/13 07:30:13;;;;;;;8.30;4.63;;;;;;;;;;8416302;28;20422;-87
2023/01/13 07:34:16;;;;;;;7.32;4.20;;;;;;;;;;8395254;28;20045;-88
2023/01/13 07:38:19;;;;;;;10.32;4.78;;;;;;;;;;8395069;28;20071;-87
2023/01/13 07:46:43;;;;;;;4.35;2.67;;;;;;;;;;8395549;28;20403;-87
2023/01/13 07:50:46;;;;;;;10.88;4.78;;;;;;;;;;8395781;28;20475;-87
2023/01/13 07:54:49;;;;;;;6.32;4.03;;;;;;;;;;8422351;28;20458;-87
2023/01/13 07:58:54;;;;;;;9.15;4.47;;;;;;;;;;8421288;28;20048;-87
2023/01/13 08:02:59;;;;;;;9.25;4.70;;;;;;;;;;8409527;28;20491;-87
2023/01/13 08:07:04;;;;;;;9.70;5.20;;;;;;;;;;8394722;28;20380;-88
2023/01/13 08:11:08;;;;;;;8.77;4.25;;;;;;;;;;8400601;28;20188;-87
2023/01/13 08:15:13;;;;;;;3.97;2.42;;;;;;;;;;8402667;28;20116;-87
2023/01/13 08:19:16;;;;;;;9.82;5.22;;;;;;;;;;8422232;28;20135;-87
2023/01/13 08:23:20;;;;;;;8.23;4.80;;;;;;;;;;8395351;28;20068;-87
2023/01/13 08:27:23;;;;;;;8.85;4.45;;;;;;;;;;8414972;28;20107;-87
2023/01/13 08:31:27;;;;;;;7.90;4.65;;;;;;;;;;8403329;28;20161;-88
2023/01/13 08:35:30;;;;;;;7.15;4.00;;;;;;;;;;8401805;28;20186;-87
2023/01/13 08:39:34;;;;;;;9.20;5.25;;;;;;;;;;8401434;28;20044;-87
2023/01/13 08:43:37;;;;;;;8.55;4.60;;;;;;;;;;8414799;28;20093;-87
2023/01/13 08:47:41;;;;;;;10.18;5.35;;;;;;;;;;8387108;28;20040;-87
2023/01/13 08:51:45;;;;;;;8.93;4.97;;;;;;;;;;8407334;28;20118;-87
2023/01/13 08:55:48;;;;;;;9.40;4.45;;;;;;;;;;8428211;28;20046;-88
2023/01/13 08:59:51;;;;;;;7.70;3.97;;;;;;;;;;8428424;28;20093;-88
2023/01/13 09:03:56;;;;;;;8.35;4.20;;;;;;;;;;8429028;28;20530;-88
2023/01/13 09:07:59;;;;;;;10.30;4.18;;;;;;;;;;8418610;28;20218;-88
2023/01/13 09:16:22;;;;;;;8.30;4.10;;;;;;;;;;8391010;28;20048;-87
2023/01/13 09:20:27;;;;;;;8.48;4.25;;;;;;;;;;8411654;28;20501;-88
2023/01/13 09:24:30;;;;;;;9.88;4.25;;;;;;;;;;8428560;28;20470;-88
2023/01/13 09:28:33;;;;;;;10.05;4.60;;;;;;;;;;8427689;28;20125;-88
2023/01/13 09:32:37;;;;;;;10.10;4.32;;;;;;;;;;8411910;28;20535;-88
2023/01/13 09:36:41;;;;;;;8.00;4.63;;;;;;;;;;8427212;28;20865;-88
2023/01/13 09:40:49;;;;;;;8.10;4.75;;;;;;;;;;8427355;28;20449;-88
2023/01/13 09:44:57;;;;;;;135.20;46.42;;;;;;;;;;8427895;28;20052;-88
2023/01/13 09:49:02;;;;;;;13.07;7.18;;;;;;;;;;8422277;28;20742;-88
2023/01/13 09:53:15;;;;;;;10.50;5.45;;;;;;;;;;8421608;28;20044;-88
2023/01/13 09:57:20;;;;;;;16.48;10.50;;;;;;;;;;8414096;28;20044;-88
2023/01/13 10:01:29;;;;;;;10.90;5.65;;;;;;;;;;8412995;28;20659;-88
2023/01/13 10:05:38;;;;;;;12.27;4.82;;;;;;;;;;8426734;28;20070;-87
2023/01/13 10:09:49;;;;;;;8.90;5.10;;;;;;;;;;8418498;28;20051;-88
2023/01/13 10:13:58;;;;;;;6.60;3.83;;;;;;;;;;8412741;28;20121;-88
2023/01/13 10:18:09;;;;;;;11.75;5.70;;;;;;;;;;8413147;28;20179;-88
2023/01/13 10:22:24;;;;;;;11.33;5.83;;;;;;;;;;8409516;28;20079;-87
2023/01/13 10:26:50;;;;;;;12.50;6.32;;;;;;;;;;8411820;28;20142;-88
2023/01/13 10:30:53;;;;;;;9.68;5.30;;;;;;;;;;8424236;28;20415;-88
2023/01/13 10:34:57;;;;;;;9.70;4.90;;;;;;;;;;8413651;28;20054;-88
2023/01/13 10:39:09;;;;;;;5.60;2.92;;;;;;;;;;8419617;28;20115;-88
2023/01/13 10:43:13;;;;;;;9.27;4.53;;;;;;;;;;8422196;28;20410;-88
2023/01/13 10:47:23;;;;;;;8.45;5.00;;;;;;;;;;8417677;28;20131;-86
2023/01/13 10:51:28;;;;;;;9.02;5.00;;;;;;;;;;8406053;28;20045;-87
2023/01/13 10:55:32;;;;;;;10.25;5.20;;;;;;;;;;8404817;28;20404;-87
2023/01/13 10:59:37;;;;;;;9.63;4.25;;;;;;;;;;8425302;28;20048;-87
2023/01/13 11:03:43;;;;;;;10.05;4.47;;;;;;;;;;8417378;28;20573;-88
2023/01/13 11:07:50;;;;;;;10.35;4.60;;;;;;;;;;8424074;28;20433;-88
2023/01/13 11:11:55;;;;;;;11.13;4.70;;;;;;;;;;8401928;28;20063;-87
2023/01/13 11:16:04;;;;;;;9.85;4.40;;;;;;;;;;8424792;28;20634;-87
2023/01/13 11:20:20;;;;;;;9.65;4.40;;;;;;;;;;8423933;28;20080;-87
2023/01/13 11:24:33;;;;;;;7.72;4.40;;;;;;;;;;8424203;28;20040;-87
2023/01/13 11:28:46;;;;;;;10.00;4.07;;;;;;;;;;8417475;28;20055;-86
2023/01/13 11:33:02;;;;;;;8.55;4.10;;;;;;;;;;8422591;28;20040;-86
2023/01/13 11:37:12;;;;;;;7.55;3.60;;;;;;;;;;8404653;28;20052;-87
2023/01/13 11:41:27;;;;;;;8.65;4.13;;;;;;;;;;8424676;28;20276;-89
2023/01/13 11:45:37;;;;;;;6.97;3.75;;;;;;;;;;8423467;28;20110;-87
2023/01/13 11:49:47;;;;;;;9.50;3.80;;;;;;;;;;8422556;28;20048;-87
2023/01/13 11:54:13;;;;;;;7.95;4.22;;;;;;;;;;8411720;28;20048;-88
2023/01/13 11:58:49;;;;;;;8.13;3.92;;;;;;;;;;8416513;28;20154;-87
2023/01/13 12:02:58;;;;;;;7.93;4.10;;;;;;;;;;8410822;28;20052;-88
2023/01/13 12:07:14;;;;;;;6.47;3.60;;;;;;;;;;8398563;28;20182;-88
2023/01/13 12:11:26;;;;;;;7.18;4.22;;;;;;;;;;8409111;28;20055;-88
2023/01/13 12:15:56;;;;;;;8.48;3.90;;;;;;;;;;8393854;28;20561;-88
2023/01/13 12:20:18;;;;;;;7.47;3.55;;;;;;;;;;8416616;28;20119;-88
2023/01/13 12:24:24;;;;;;;;;;;;;;;;;;8395728;28;20044;-88
2023/01/13 12:28:38;;;;;;;8.73;3.78;;;;;;;;;;8394760;28;19973;-89
2023/01/13 12:32:41;;;;;;;8.43;4.30;;;;;;;;;;8415699;28;20055;-88
2023/01/13 12:36:57;;;;;;;12.80;3.75;;;;;;;;;;8423164;28;20040;-88
2023/01/13 12:41:10;;;;;;;12.00;5.30;;;;;;;;;;8412008;28;20127;-88
2023/01/13 12:45:28;;;;;;;28.80;12.68;;;;;;;;;;8416007;28;20125;-88
2023/01/13 12:49:33;;;;;;;43.20;17.23;;;;;;;;;;8411471;28;20048;-88
2023/01/13 12:53:37;;;;;;;17.02;7.30;;;;;;;;;;8409284;28;20036;-88
2023/01/13 12:57:59;;;;;;;9.65;4.53;;;;;;;;;;8422746;28;20039;-88
2023/01/13 13:02:28;;;;;;;6.68;3.80;;;;;;;;;;8422448;28;20082;-88
2023/01/13 13:06:32;;;;;;;9.52;3.83;;;;;;;;;;8419446;28;20075;-88
2023/01/13 13:10:39;;;;;;;6.72;3.92;;;;;;;;;;8409333;28;20120;-88
2023/01/13 13:15:05;;;;;;;6.80;3.67;;;;;;;;;;8427841;28;20504;-88
2023/01/13 13:19:44;;;;;;;8.65;3.42;;;;;;;;;;8428846;28;20062;-88
2023/01/13 13:24:03;;;;;;;5.78;3.60;;;;;;;;;;8428427;28;20055;-88
2023/01/13 13:28:19;;;;;;;9.35;3.78;;;;;;;;;;8422894;28;20841;-87
2023/01/13 13:32:45;;;;;;;7.43;3.50;;;;;;;;;;8427890;28;20177;-88
2023/01/13 13:37:18;;;;;;;8.88;3.60;;;;;;;;;;8427990;28;20043;-88
2023/01/13 13:50:16;;;;;;;8.00;3.80;;;;;;;;;;8422784;28;20138;-88
2023/01/13 13:54:22;;;;;;;9.30;4.68;;;;;;;;;;8403832;28;20044;-89
2023/01/13 13:58:27;;;;;;;7.07;3.70;;;;;;;;;;8426870;28;20040;-89
2023/01/13 14:02:32;;;;;;;6.07;3.10;;;;;;;;;;8408322;28;20097;-88
2023/01/13 14:06:36;;;;;;;6.30;3.60;;;;;;;;;;8427536;28;20533;-89
2023/01/13 14:10:41;;;;;;;6.85;3.50;;;;;;;;;;8426281;28;20055;-89
2023/01/13 14:14:46;;;;;;;7.85;3.90;;;;;;;;;;8420558;28;20493;-89
2023/01/13 14:18:49;;;;;;;11.57;5.03;;;;;;;;;;8426325;28;20060;-90
2023/01/13 14:22:59;;;;;;;10.30;5.25;;;;;;;;;;8419716;28;20056;-88
2023/01/13 14:27:15;;;;;;;8.00;4.40;;;;;;;;;;8419646;28;20117;-89
2023/01/13 14:31:18;;;;;;;7.65;3.92;;;;;;;;;;8420847;28;20146;-89
2023/01/13 14:35:21;;;;;;;5.20;2.72;;;;;;;;;;8414162;28;20566;-90
2023/01/13 14:39:37;;;;;;;7.07;3.95;;;;;;;;;;8425481;28;20611;-89
2023/01/13 14:43:44;;;;;;;7.22;3.42;;;;;;;;;;8421599;28;20163;-89
2023/01/13 14:47:54;;;;;;;8.80;3.78;;;;;;;;;;8416054;28;20048;-89
2023/01/13 14:52:06;;;;;;;7.28;3.67;;;;;;;;;;8415241;28;20052;-90
2023/01/13 14:56:50;;;;;;;7.25;3.78;;;;;;;;;;8405105;28;20047;-89
2023/01/13 15:01:27;;;;;;;6.88;3.35;;;;;;;;;;8400634;28;20404;-89
2023/01/13 15:05:37;;;;;;;9.38;4.60;;;;;;;;;;8405183;28;20064;-89
2023/01/13 15:09:44;;;;;;;14.13;6.53;;;;;;;;;;8409038;28;20488;-88
2023/01/13 15:13:56;;;;;;;17.88;7.82;;;;;;;;;;8418225;28;20051;-89
2023/01/13 15:18:00;;;;;;;13.90;6.82;;;;;;;;;;8417058;28;20622;-89
2023/01/13 15:22:03;;;;;;;16.70;7.55;;;;;;;;;;8419446;28;20380;-89
2023/01/13 15:26:21;;;;;;;73.32;31.52;;;;;;;;;;8425340;28;20138;-89
2023/01/13 15:30:27;;;;;;;17.83;9.98;;;;;;;;;;8409355;28;20133;-89
2023/01/13 15:34:31;;;;;;;51.67;28.95;;;;;;;;;;8423435;28;20047;-88
2023/01/13 15:38:37;;;;;;;16.08;8.57;;;;;;;;;;8420707;28;20048;-88
2023/01/13 15:47:28;;;;;;;15.65;7.30;;;;;;;;;;8369156;28;20052;-90
2023/01/13 15:51:32;;;;;;;81.65;41.13;;;;;;;;;;8401625;28;20044;-90
2023/01/13 15:55:38;;;;;;;13.68;9.20;;;;;;;;;;8416798;28;20050;-88
2023/01/13 15:59:42;;;;;;;12.75;8.35;;;;;;;;;;8420381;28;20521;-90
2023/01/13 16:03:47;;;;;;;43.65;30.13;;;;;;;;;;8409913;28;20040;-90
2023/01/13 16:07:52;;;;;;;139.20;56.17;;;;;;;;;;8411987;28;20402;-89
2023/01/13 16:11:56;;;;;;;98.63;43.25;;;;;;;;;;8414979;28;20051;-89
2023/01/13 16:15:59;;;;;;;100.47;44.97;;;;;;;;;;8417684;28;20573;-89
2023/01/13 16:20:05;;;;;;;106.38;42.75;;;;;;;;;;8408609;28;20044;-90
2023/01/13 16:24:08;;;;;;;52.88;20.10;;;;;;;;;;8413037;28;20506;-88
2023/01/13 16:28:20;;;;;;;24.50;13.05;;;;;;;;;;8407895;28;20569;-88
2023/01/13 16:32:23;;;;;;;31.43;16.57;;;;;;;;;;8415004;28;20487;-90
2023/01/13 16:36:29;;;;;;;23.50;14.10;;;;;;;;;;8388064;28;20110;-90
2023/01/13 16:40:35;;;;;;;21.02;13.13;;;;;;;;;;8423260;28;20074;-88
2023/01/13 16:44:39;;;;;;;29.10;15.73;;;;;;;;;;8420876;28;20455;-88
2023/01/13 16:48:42;;;;;;;25.23;14.88;;;;;;;;;;8425901;28;20040;-88
2023/01/13 16:52:47;;;;;;;38.58;14.85;;;;;;;;;;8402129;28;20052;-88
2023/01/13 16:56:51;;;;;;;31.83;13.43;;;;;;;;;;8428115;28;20044;-88
2023/01/13 17:00:54;;;;;;;73.63;28.70;;;;;;;;;;8426490;28;20055;-89
2023/01/13 17:04:57;;;;;;;74.55;29.15;;;;;;;;;;8415845;28;20076;-87
2023/01/13 17:09:03;;;;;;;30.63;14.43;;;;;;;;;;8424313;28;20443;-88
2023/01/13 17:13:06;;;;;;;36.63;14.75;;;;;;;;;;8429240;28;20040;-89
2023/01/13 17:17:19;;;;;;;26.90;11.90;;;;;;;;;;8424606;28;20485;-89
2023/01/13 17:21:23;;;;;;;34.90;17.95;;;;;;;;;;8427562;28;20452;-88
2023/01/13 17:25:27;;;;;;;22.70;11.95;;;;;;;;;;8421733;28;20163;-89
2023/01/13 17:29:31;;;;;;;19.52;9.65;;;;;;;;;;8424752;28;20060;-89
2023/01/13 17:33:36;;;;;;;15.18;6.63;;;;;;;;;;8424690;28;20054;-89
2023/01/13 17:37:39;;;;;;;23.08;9.50;;;;;;;;;;8427414;28;20127;-88
2023/01/13 17:41:44;;;;;;;25.73;11.82;;;;;;;;;;8427753;28;20127;-88
2023/01/13 17:45:48;;;;;;;15.40;7.20;;;;;;;;;;8427528;28;20068;-88
2023/01/13 17:49:52;;;;;;;15.05;6.97;;;;;;;;;;8414075;28;20060;-89
2023/01/13 17:53:55;;;;;;;19.65;8.27;;;;;;;;;;8421099;28;20056;-88
2023/01/13 17:58:00;;;;;;;19.10;6.97;;;;;;;;;;8425173;28;20462;-88
2023/01/13 18:02:03;;;;;;;18.08;7.82;;;;;;;;;;8418910;28;20131;-88
2023/01/13 18:06:09;;;;;;;19.98;7.70;;;;;;;;;;8416751;28;20044;-88
2023/01/13 18:10:13;;;;;;;20.73;8.65;;;;;;;;;;8416659;28;20048;-89
2023/01/13 18:14:21;;;;;;;27.27;12.30;;;;;;;;;;8423315;28;20127;-88
2023/01/13 18:18:24;;;;;;;41.42;16.80;;;;;;;;;;8397059;28;20067;-89
2023/01/13 18:31:14;;;;;;;10.57;5.38;;;;;;;;;;8416993;28;20087;-89
2023/01/13 18:35:20;;;;;;;36.10;15.55;;;;;;;;;;8398697;28;20037;-88
2023/01/13 18:39:24;;;;;;;11.98;7.13;;;;;;;;;;8399847;28;20105;-89
2023/01/13 18:43:28;;;;;;;40.60;19.75;;;;;;;;;;8417026;28;20044;-88
2023/01/13 18:47:35;;;;;;;18.25;8.88;;;;;;;;;;8421193;28;20093;-89
2023/01/13 18:51:39;;;;;;;13.70;7.03;;;;;;;;;;8401450;28;20044;-89
2023/01/13 18:55:45;;;;;;;13.38;6.18;;;;;;;;;;8398954;28;20040;-88
2023/01/13 18:59:49;;;;;;;14.57;6.03;;;;;;;;;;8411628;28;20446;-89
2023/01/13 19:04:01;;;;;;;16.67;8.60;;;;;;;;;;8416468;28;20043;-89
2023/01/13 19:08:05;;;;;;;15.35;7.75;;;;;;;;;;8415219;28;20384;-89
2023/01/13 19:12:10;;;;;;;14.60;7.75;;;;;;;;;;8418291;28;20046;-90
2023/01/13 19:16:14;;;;;;;13.38;5.78;;;;;;;;;;8413364;28;20514;-89
2023/01/13 19:20:21;;;;;;;15.90;6.85;;;;;;;;;;8413414;28;20044;-89
2023/01/13 19:24:26;;;;;;;11.70;6.55;;;;;;;;;;8395688;28;20044;-88
2023/01/13 19:28:30;;;;;;;11.43;6.03;;;;;;;;;;8405303;28;20056;-89
2023/01/13 19:32:34;;;;;;;14.25;6.43;;;;;;;;;;8405605;28;20048;-89
2023/01/13 19:36:40;;;;;;;14.98;7.35;;;;;;;;;;8399140;28;20052;-89
2023/01/13 19:40:53;;;;;;;16.33;6.60;;;;;;;;;;8403510;28;20047;-89
2023/01/13 19:49:18;;;;;;;15.35;7.32;;;;;;;;;;8395219;28;20040;-89
2023/01/13 19:53:23;;;;;;;14.20;7.63;;;;;;;;;;8413235;28;20475;-88
2023/01/13 19:57:28;;;;;;;12.30;7.47;;;;;;;;;;8411169;28;20047;-89
2023/01/13 20:01:33;;;;;;;14.18;7.15;;;;;;;;;;8423469;28;20040;-88
2023/01/13 20:05:38;;;;;;;13.88;7.85;;;;;;;;;;8404951;28;20105;-89
2023/01/13 20:09:44;;;;;;;14.25;8.63;;;;;;;;;;8400786;28;20045;-89
2023/01/13 20:13:50;;;;;;;16.80;7.88;;;;;;;;;;8407276;28;20040;-89
2023/01/13 20:17:59;;;;;;;14.35;8.35;;;;;;;;;;8408307;28;20045;-88
2023/01/13 20:22:03;;;;;;;18.77;8.20;;;;;;;;;;8398145;28;20044;-90
2023/01/13 20:26:09;;;;;;;15.65;8.05;;;;;;;;;;8419029;28;20074;-89
2023/01/13 20:30:13;;;;;;;13.40;7.10;;;;;;;;;;8401005;28;20040;-89
2023/01/13 20:34:19;;;;;;;15.52;8.13;;;;;;;;;;8401614;28;20043;-89
2023/01/13 20:38:23;;;;;;;20.23;10.00;;;;;;;;;;8413243;28;20075;-88
2023/01/13 20:42:38;;;;;;;15.10;7.25;;;;;;;;;;8409148;28;20051;-89
2023/01/13 20:46:44;;;;;;;13.43;7.78;;;;;;;;;;8414822;28;20109;-89
2023/01/13 20:50:56;;;;;;;13.43;7.43;;;;;;;;;;8401380;28;20052;-88
2023/01/13 20:55:00;;;;;;;13.43;7.65;;;;;;;;;;8401118;28;20556;-89
2023/01/13 20:59:05;;;;;;;18.02;8.73;;;;;;;;;;8401221;28;20056;-88
2023/01/13 21:03:09;;;;;;;18.55;8.73;;;;;;;;;;8432517;28;20122;-88
2023/01/13 21:07:12;;;;;;;15.27;8.35;;;;;;;;;;8406530;28;20480;-89
2023/01/13 21:15:15;;;;;;;10.32;5.13;;;;;;;;;;8400651;28;20048;-88
2023/01/13 21:15:39;;;;;;;15.10;7.20;;;;;;;;;;8400661;28;20699;-88
2023/01/13 21:19:43;;;;;;;17.55;9.07;;;;;;;;;;8423618;28;20043;-89
2023/01/13 21:23:51;;;;;;;15.73;8.38;;;;;;;;;;8398791;28;20047;-89
2023/01/13 21:27:54;;;;;;;16.77;8.55;;;;;;;;;;8413865;28;20139;-89
2023/01/13 21:32:00;;;;;;;17.08;8.00;;;;;;;;;;8401976;28;20437;-87
2023/01/13 21:36:05;;;;;;;15.73;8.88;;;;;;;;;;8409297;28;20086;-89
2023/01/13 21:40:11;;;;;;;25.30;11.48;;;;;;;;;;8400143;28;20040;-89
2023/01/13 21:48:36;;;;;;;17.23;9.50;;;;;;;;;;8399542;28;20588;-89
2023/01/13 21:52:41;;;;;;;15.45;8.13;;;;;;;;;;8399187;28;20301;-89
2023/01/13 21:56:44;;;;;;;20.55;10.07;;;;;;;;;;8407103;28;20036;-89
2023/01/13 22:00:48;;;;;;;17.83;8.10;;;;;;;;;;8417820;28;20067;-88
2023/01/13 22:04:52;;;;;;;15.25;8.50;;;;;;;;;;8406628;28;20123;-89
2023/01/13 22:08:58;;;;;;;16.00;8.45;;;;;;;;;;8405815;28;20131;-88
2023/01/13 22:14:04;;;;;;;18.67;8.98;;;;;;;;;;8406063;28;20489;-89
2023/01/13 22:17:30;;;;;;;16.15;7.88;;;;;;;;;;8429954;28;20044;-88
2023/01/13 22:21:35;;;;;;;14.55;8.18;;;;;;;;;;8420103;28;20082;-88
2023/01/13 22:25:38;;;;;;;13.85;7.93;;;;;;;;;;8416878;28;20044;-88
2023/01/13 22:29:41;;;;;;;21.70;10.60;;;;;;;;;;8405626;28;20543;-89
2023/01/13 22:33:45;;;;;;;27.20;14.57;;;;;;;;;;8397901;28;20067;-89
2023/01/13 22:37:50;;;;;;;17.85;9.15;;;;;;;;;;8397980;28;20071;-89
2023/01/13 22:41:53;;;;;;;32.78;15.57;;;;;;;;;;8405024;28;20482;-89
2023/01/13 22:45:59;;;;;;;17.83;9.43;;;;;;;;;;8411067;28;20499;-89
2023/01/13 22:50:02;;;;;;;26.23;12.23;;;;;;;;;;8411018;28;20048;-89
2023/01/13 22:54:07;;;;;;;19.73;10.00;;;;;;;;;;8397379;28;20048;-89
2023/01/13 22:58:10;;;;;;;20.73;10.55;;;;;;;;;;8397238;28;20479;-89
2023/01/13 23:02:13;;;;;;;17.63;8.57;;;;;;;;;;8397126;28;20059;-88
2023/01/13 23:06:18;;;;;;;16.00;8.25;;;;;;;;;;8429644;28;20717;-89
2023/01/13 23:10:22;;;;;;;23.70;10.38;;;;;;;;;;8417588;28;20047;-88
2023/01/13 23:14:25;;;;;;;17.92;8.00;;;;;;;;;;8391990;28;20044;-89
2023/01/13 23:18:28;;;;;;;16.30;7.55;;;;;;;;;;8409991;28;20072;-88
2023/01/13 23:22:31;;;;;;;19.73;9.77;;;;;;;;;;8403160;28;20518;-88
2023/01/13 23:26:36;;;;;;;21.38;9.55;;;;;;;;;;8429878;28;20135;-88
2023/01/13 23:30:40;;;;;;;17.17;8.57;;;;;;;;;;8396156;28;20054;-88
2023/01/13 23:34:42;;;;;;;15.35;8.57;;;;;;;;;;8396009;28;20130;-87
2023/01/13 23:38:46;;;;;;;18.05;9.57;;;;;;;;;;8396191;28;20040;-88
2023/01/13 23:42:50;;;;;;;14.65;8.90;;;;;;;;;;8395813;28;20048;-89
2023/01/13 23:46:53;;;;;;;16.88;8.70;;;;;;;;;;8403642;28;20048;-89
2023/01/13 23:50:59;;;;;;;15.27;8.73;;;;;;;;;;8429085;28;20048;-88
2023/01/13 23:55:02;;;;;;;17.80;8.60;;;;;;;;;;8406840;28;20041;-86
2023/01/13 23:59:07;;;;;;;16.73;8.40;;;;;;;;;;8422653;28;20494;-88
